Time;durP1;ratioP1;P1;durP2;ratioP2;P2;SDS_P1;SDS_P2;PMS_P1;PMS_P2;Temp;Humidity;BMP_temperature;BMP_pressure;BME280_temperature;BME280_humidity;BME280_pressure;Samples;Min_cycle;Max_cycle;Signal;HPM_P1;HPM_P2
2023/05/14 00:01:51;;;;;;;1999.90;999.90;;;13.00;99.90;;;;;;5032629;28;20196;-73
2023/05/14 00:04:18;;;;;;;1999.90;999.90;;;12.90;99.90;;;;;;5033806;28;20234;-73
2023/05/14 00:06:44;;;;;;;1999.90;999.90;;;13.00;99.90;;;;;;5033882;28;20165;-73
2023/05/14 00:09:11;;;;;;;1999.90;999.90;;;12.90;99.90;;;;;;5033520;28;20465;-73
2023/05/14 00:11:36;;;;;;;1999.90;999.90;;;12.90;99.90;;;;;;5033164;28;20831;-73
2023/05/14 00:14:02;;;;;;;1999.90;999.90;;;13.00;99.90;;;;;;5033561;28;20402;-73
2023/05/14 00:16:27;;;;;;;1999.90;999.90;;;12.90;99.90;;;;;;5033494;28;20186;-73
2023/05/14 00:18:53;;;;;;;1999.90;999.90;;;12.80;99.90;;;;;;5033686;28;20255;-73
2023/05/14 00:21:18;;;;;;;1999.90;999.90;;;12.80;99.90;;;;;;5015333;28;20301;-73
2023/05/14 00:23:44;;;;;;;1999.90;999.90;;;12.60;99.90;;;;;;5033374;28;20161;-73
2023/05/14 00:26:10;;;;;;;1999.90;999.90;;;12.50;99.90;;;;;;5033407;28;20675;-73
2023/05/14 00:28:35;;;;;;;1999.90;999.90;;;12.40;99.90;;;;;;5033245;28;20170;-73
2023/05/14 00:31:01;;;;;;;1999.90;999.90;;;12.30;99.90;;;;;;5032885;28;20664;-73
2023/05/14 00:33:26;;;;;;;1999.90;999.90;;;12.20;99.90;;;;;;5033191;28;20221;-73
2023/05/14 00:35:52;;;;;;;1999.90;999.90;;;12.20;99.90;;;;;;5033178;28;20301;-73
2023/05/14 00:38:18;;;;;;;1999.90;999.90;;;12.30;99.90;;;;;;5033146;28;20171;-73
2023/05/14 00:40:50;;;;;;;1999.90;999.90;;;12.30;99.90;;;;;;5032982;28;20693;-73
2023/05/14 00:43:20;;;;;;;1999.90;999.90;;;12.30;99.90;;;;;;5032723;28;20240;-72
2023/05/14 00:45:51;;;;;;;1999.90;999.90;;;12.30;99.90;;;;;;5033020;28;20945;-73
2023/05/14 00:48:16;;;;;;;1999.90;999.90;;;12.20;99.90;;;;;;5032911;28;20405;-73
2023/05/14 00:50:42;;;;;;;1999.90;999.90;;;12.20;99.90;;;;;;5032749;28;20524;-73
2023/05/14 00:53:09;;;;;;;1999.90;999.90;;;12.20;99.90;;;;;;5032534;28;20494;-73
2023/05/14 00:55:39;;;;;;;1999.90;999.90;;;12.30;99.90;;;;;;5032885;28;20174;-73
2023/05/14 00:58:12;;;;;;;1999.90;999.90;;;12.40;99.90;;;;;;5032775;28;20411;-73
2023/05/14 01:00:39;;;;;;;1999.90;999.90;;;12.40;99.90;;;;;;5032499;28;20449;-73
2023/05/14 01:03:06;;;;;;;1999.90;999.90;;;12.30;99.90;;;;;;5032351;28;20407;-73
2023/05/14 01:05:41;;;;;;;1999.90;999.90;;;12.20;99.90;;;;;;5032725;28;20404;-73
2023/05/14 01:08:41;;;;;;;1999.90;999.90;;;12.10;99.90;;;;;;5032574;28;20934;-72
2023/05/14 01:11:18;;;;;;;1999.90;999.90;;;12.10;99.90;;;;;;5032101;28;20427;-72
2023/05/14 01:13:56;;;;;;;1999.90;999.90;;;12.10;99.90;;;;;;5032856;28;20902;-72
2023/05/14 01:16:26;;;;;;;1999.90;999.90;;;12.00;99.90;;;;;;5014582;28;20461;-72
2023/05/14 01:18:55;;;;;;;1999.90;999.90;;;12.00;99.90;;;;;;5032500;28;20399;-73
2023/05/14 01:21:33;;;;;;;1999.90;999.90;;;12.00;99.90;;;;;;5031920;28;20457;-73
2023/05/14 01:23:58;;;;;;;1999.90;999.90;;;11.90;99.90;;;;;;5032405;28;20407;-73
2023/05/14 01:26:24;;;;;;;1999.90;999.90;;;11.90;99.90;;;;;;5032254;28;20477;-72
2023/05/14 01:28:51;;;;;;;1999.90;999.90;;;11.90;99.90;;;;;;5032172;28;20585;-73
2023/05/14 01:31:26;;;;;;;1999.90;999.90;;;11.80;99.90;;;;;;5031620;28;20260;-72
2023/05/14 01:33:54;;;;;;;1999.90;999.90;;;11.90;99.90;;;;;;5032156;28;20408;-73
2023/05/14 01:36:21;;;;;;;1999.90;999.90;;;11.90;99.90;;;;;;5032188;28;20493;-73
2023/05/14 01:38:48;;;;;;;1999.90;999.90;;;12.00;99.90;;;;;;5032159;28;20826;-73
2023/05/14 01:41:14;;;;;;;1999.90;999.90;;;12.00;99.90;;;;;;5031743;28;21011;-73
2023/05/14 01:43:40;;;;;;;1999.90;999.90;;;12.00;99.90;;;;;;5032173;28;20776;-73
2023/05/14 01:46:05;;;;;;;1999.90;999.90;;;12.00;99.90;;;;;;5031958;28;20404;-72
2023/05/14 01:48:31;;;;;;;1999.90;999.90;;;12.10;99.90;;;;;;5032062;28;20173;-72
2023/05/14 01:50:57;;;;;;;1999.90;999.90;;;12.00;99.90;;;;;;5031650;28;20615;-73
2023/05/14 01:53:22;;;;;;;1999.90;999.90;;;11.90;99.90;;;;;;5031990;28;20178;-72
2023/05/14 01:55:48;;;;;;;1999.90;999.90;;;11.80;99.90;;;;;;5032018;28;20277;-72
2023/05/14 01:58:13;;;;;;;1999.90;999.90;;;11.70;99.90;;;;;;5031928;28;20231;-72
2023/05/14 02:00:39;;;;;;;1999.90;999.90;;;11.60;99.90;;;;;;5031742;28;20205;-72
2023/05/14 02:03:04;;;;;;;1999.90;999.90;;;11.60;99.90;;;;;;5031615;28;20256;-73
2023/05/14 02:05:30;;;;;;;1999.90;999.90;;;11.50;99.90;;;;;;5031845;28;20676;-72
2023/05/14 02:07:55;;;;;;;1999.90;999.90;;;11.60;99.90;;;;;;5031842;28;20201;-72
2023/05/14 02:10:21;;;;;;;1999.90;999.90;;;11.60;99.90;;;;;;5031692;28;20194;-72
2023/05/14 02:12:47;;;;;;;1999.90;999.90;;;11.50;99.90;;;;;;5031535;28;20180;-73
2023/05/14 02:15:12;;;;;;;1999.90;999.90;;;11.50;99.90;;;;;;5031634;28;20182;-72
2023/05/14 02:17:38;;;;;;;1999.90;999.90;;;11.50;99.90;;;;;;5031709;28;20196;-72
2023/05/14 02:20:04;;;;;;;1999.90;999.90;;;11.50;99.90;;;;;;5031584;28;20199;-73
2023/05/14 02:22:29;;;;;;;1999.90;999.90;;;11.50;99.90;;;;;;5013581;28;20553;-72
2023/05/14 02:24:55;;;;;;;1999.90;999.90;;;11.50;99.90;;;;;;5034667;28;20404;-72
2023/05/14 02:27:21;;;;;;;1999.90;999.90;;;11.50;99.90;;;;;;5035536;28;20166;-72
2023/05/14 02:29:46;;;;;;;1999.90;999.90;;;11.50;99.90;;;;;;5035331;28;20209;-73
2023/05/14 02:32:12;;;;;;;1999.90;999.90;;;11.40;99.90;;;;;;5035220;28;20168;-72
2023/05/14 02:34:37;;;;;;;1999.90;999.90;;;11.40;99.90;;;;;;5035485;28;20176;-72
2023/05/14 02:37:03;;;;;;;1999.90;999.90;;;11.40;99.90;;;;;;5035371;28;20167;-72
2023/05/14 02:39:29;;;;;;;1999.90;999.90;;;11.30;99.90;;;;;;5065528;22;20229;-70
2023/05/14 02:41:55;;;;;;;1999.90;999.90;;;11.10;99.90;;;;;;5015026;28;20201;-70
2023/05/14 02:44:20;;;;;;;1999.90;999.90;;;11.00;99.90;;;;;;5015453;28;20809;-70
2023/05/14 02:46:46;;;;;;;1999.90;999.90;;;11.00;99.90;;;;;;5015453;28;20169;-70
2023/05/14 02:49:12;;;;;;;1999.90;999.90;;;10.90;99.90;;;;;;5015340;28;20229;-70
2023/05/14 02:51:38;;;;;;;1999.90;999.90;;;11.00;99.90;;;;;;5015060;28;20449;-69
2023/05/14 02:54:04;;;;;;;1999.90;999.90;;;10.90;99.90;;;;;;5015287;28;20177;-70
2023/05/14 02:56:30;;;;;;;1999.90;999.90;;;10.90;99.90;;;;;;5015160;28;20412;-69
2023/05/14 02:58:55;;;;;;;1999.90;999.90;;;10.80;99.90;;;;;;5015163;28;20565;-70
2023/05/14 03:01:21;;;;;;;1999.90;999.90;;;10.70;99.90;;;;;;5014809;28;20193;-70
2023/05/14 03:03:46;;;;;;;1999.90;999.90;;;10.60;99.90;;;;;;5015194;28;20172;-70
2023/05/14 03:06:12;;;;;;;1999.90;999.90;;;10.80;99.90;;;;;;5014987;28;20228;-70
2023/05/14 03:08:37;;;;;;;1999.90;999.90;;;10.80;99.90;;;;;;5015053;28;20268;-70
2023/05/14 03:11:03;;;;;;;1999.90;999.90;;;10.80;99.90;;;;;;5014563;28;20224;-70
2023/05/14 03:13:28;;;;;;;1999.90;999.90;;;10.70;99.90;;;;;;5014809;28;20173;-70
2023/05/14 03:15:55;;;;;;;1999.90;999.90;;;10.60;99.90;;;;;;5014960;28;20184;-70
2023/05/14 03:18:21;;;;;;;1999.90;999.90;;;10.70;99.90;;;;;;5014878;28;20549;-70
2023/05/14 03:20:46;;;;;;;1999.90;999.90;;;10.60;99.90;;;;;;5014656;28;20558;-69
2023/05/14 03:23:13;;;;;;;1999.90;999.90;;;10.60;99.90;;;;;;5014578;28;20169;-70
2023/05/14 03:25:39;;;;;;;1999.90;999.90;;;10.60;99.90;;;;;;5014634;28;20188;-70
2023/05/14 03:28:05;;;;;;;1999.90;999.90;;;10.70;99.90;;;;;;5014549;28;20408;-69
2023/05/14 03:30:30;;;;;;;1999.90;999.90;;;10.80;99.90;;;;;;5014794;28;20181;-70
2023/05/14 03:32:56;;;;;;;1999.90;999.90;;;10.60;99.90;;;;;;5014303;28;20195;-70
2023/05/14 03:35:22;;;;;;;1999.90;999.90;;;10.60;99.90;;;;;;5013490;28;20232;-70
2023/05/14 03:37:48;;;;;;;1999.90;999.90;;;10.60;99.90;;;;;;5014572;28;20173;-70
2023/05/14 03:40:14;;;;;;;1999.90;999.90;;;10.60;99.90;;;;;;5014121;28;20213;-70
2023/05/14 03:42:39;;;;;;;1999.90;999.90;;;10.60;99.90;;;;;;5014028;28;20417;-69
2023/05/14 03:45:05;;;;;;;1999.90;999.90;;;10.50;99.90;;;;;;5014358;28;20174;-70
2023/05/14 03:47:31;;;;;;;1999.90;999.90;;;10.50;99.90;;;;;;5014286;28;20173;-69
2023/05/14 03:49:57;;;;;;;1999.90;999.90;;;10.50;99.90;;;;;;5014270;28;20498;-70
2023/05/14 03:52:22;;;;;;;1999.90;999.90;;;10.40;99.90;;;;;;5013962;28;20208;-70
2023/05/14 03:54:48;;;;;;;1999.90;999.90;;;10.40;99.90;;;;;;5014128;28;20207;-69
2023/05/14 03:57:13;;;;;;;1999.90;999.90;;;10.30;99.90;;;;;;5014069;28;20542;-69
2023/05/14 03:59:39;;;;;;;1999.90;999.90;;;10.40;99.90;;;;;;5014020;28;20225;-70
2023/05/14 04:02:04;;;;;;;1999.90;999.90;;;10.50;99.90;;;;;;5013719;28;20236;-70
2023/05/14 04:04:30;;;;;;;1999.90;999.90;;;10.40;99.90;;;;;;5014019;28;20170;-70
2023/05/14 04:06:55;;;;;;;1999.90;999.90;;;10.40;99.90;;;;;;5013938;28;20222;-69
2023/05/14 04:09:22;;;;;;;1999.90;999.90;;;10.40;99.90;;;;;;5013803;28;20686;-70
2023/05/14 04:11:47;;;;;;;1999.90;999.90;;;10.40;99.90;;;;;;5013590;28;20299;-70
2023/05/14 04:14:13;;;;;;;1999.90;999.90;;;10.40;99.90;;;;;;5013815;28;20956;-70
2023/05/14 04:16:38;;;;;;;1999.90;999.90;;;10.40;99.90;;;;;;5013707;28;20181;-70
2023/05/14 04:19:04;;;;;;;1999.90;999.90;;;10.30;99.90;;;;;;5013739;28;20204;-70
2023/05/14 04:21:30;;;;;;;1999.90;999.90;;;10.30;99.90;;;;;;5013236;28;20197;-70
2023/05/14 04:23:57;;;;;;;1999.90;999.90;;;10.40;99.90;;;;;;5013614;28;20662;-70
2023/05/14 04:26:23;;;;;;;1999.90;999.90;;;10.50;99.90;;;;;;5013732;28;20446;-70
2023/05/14 04:28:48;;;;;;;1999.90;999.90;;;10.40;99.90;;;;;;5013516;28;20193;-69
2023/05/14 04:31:14;;;;;;;1999.90;999.90;;;10.40;99.90;;;;;;5013314;28;20255;-70
2023/05/14 04:33:40;;;;;;;1999.90;999.90;;;10.50;99.90;;;;;;5013535;28;20184;-71
2023/05/14 04:36:07;;;;;;;1999.90;999.90;;;10.40;99.90;;;;;;5013336;28;20416;-70
2023/05/14 04:38:32;;;;;;;1999.90;999.90;;;10.50;99.90;;;;;;5013063;28;20456;-69
2023/05/14 04:40:58;;;;;;;1999.90;999.90;;;10.50;99.90;;;;;;5013014;28;20461;-70
2023/05/14 04:43:23;;;;;;;1999.90;999.90;;;10.70;99.90;;;;;;5013307;28;20172;-69
2023/05/14 04:45:50;;;;;;;1999.90;999.90;;;10.60;99.90;;;;;;5013142;28;20178;-69
2023/05/14 04:48:16;;;;;;;1999.90;999.90;;;10.70;99.90;;;;;;5012972;28;20188;-69
2023/05/14 04:50:43;;;;;;;1999.90;999.90;;;10.60;99.90;;;;;;5013072;28;20908;-70
2023/05/14 04:53:09;;;;;;;1999.90;999.90;;;10.70;99.90;;;;;;5012804;28;20180;-69
2023/05/14 04:55:34;;;;;;;1999.90;999.90;;;10.70;99.90;;;;;;5013191;28;20415;-69
2023/05/14 04:58:00;;;;;;;1999.90;999.90;;;10.70;99.90;;;;;;5013085;28;20479;-69
2023/05/14 05:00:25;;;;;;;1999.90;999.90;;;10.70;99.90;;;;;;5012783;28;20538;-69
2023/05/14 05:02:51;;;;;;;1999.90;999.90;;;10.80;99.90;;;;;;5012670;28;20172;-69
2023/05/14 05:05:17;;;;;;;1999.90;999.90;;;10.90;99.90;;;;;;5012850;28;20216;-70
2023/05/14 05:07:42;;;;;;;1999.90;999.90;;;10.90;99.90;;;;;;5012679;28;20236;-70
2023/05/14 05:10:08;;;;;;;1999.90;999.90;;;11.00;99.90;;;;;;5012750;28;20669;-70
2023/05/14 05:12:34;;;;;;;1999.90;999.90;;;11.00;99.90;;;;;;5012198;28;20192;-70
2023/05/14 05:14:59;;;;;;;1999.90;999.90;;;11.10;99.90;;;;;;5012871;28;20184;-69
2023/05/14 05:17:25;;;;;;;1999.90;999.90;;;11.10;99.90;;;;;;5012714;28;20200;-70
2023/05/14 05:19:51;;;;;;;1999.90;999.90;;;11.20;99.90;;;;;;5012538;28;20342;-70
2023/05/14 05:22:18;;;;;;;1999.90;999.90;;;11.30;99.90;;;;;;5012182;28;20206;-70
2023/05/14 05:24:44;;;;;;;1999.90;999.90;;;11.40;99.90;;;;;;5012716;28;20432;-70
2023/05/14 05:27:10;;;;;;;1999.90;999.90;;;11.50;99.90;;;;;;5012520;28;20606;-69
2023/05/14 05:29:36;;;;;;;1999.90;999.90;;;11.70;99.90;;;;;;5012513;28;20193;-70
2023/05/14 05:32:01;;;;;;;1999.90;999.90;;;11.70;99.90;;;;;;5012196;28;20787;-70
2023/05/14 05:34:27;;;;;;;1999.90;999.90;;;11.80;99.90;;;;;;5012460;28;20251;-70
2023/05/14 05:36:52;;;;;;;1999.90;999.90;;;11.80;99.90;;;;;;5012354;28;20197;-70
2023/05/14 05:39:18;;;;;;;1999.90;999.90;;;11.90;99.90;;;;;;5012101;28;20210;-69
2023/05/14 05:41:44;;;;;;;1999.90;999.90;;;12.00;99.90;;;;;;5011968;28;20206;-70
2023/05/14 05:44:09;;;;;;;1999.90;999.90;;;12.10;99.90;;;;;;5012275;28;20174;-70
2023/05/14 05:46:35;;;;;;;1999.90;999.90;;;12.20;99.90;;;;;;5012009;28;20178;-70
2023/05/14 05:49:00;;;;;;;1999.90;999.90;;;12.30;99.90;;;;;;5011870;28;20288;-70
2023/05/14 05:51:26;;;;;;;1999.90;999.90;;;12.30;99.90;;;;;;5011706;28;20264;-70
2023/05/14 05:53:52;;;;;;;1999.90;999.90;;;12.30;99.90;;;;;;5012184;28;20172;-71
2023/05/14 05:56:17;;;;;;;1999.90;999.90;;;12.30;99.90;;;;;;5012368;28;20783;-71
2023/05/14 05:58:43;;;;;;;1999.90;999.90;;;12.40;99.90;;;;;;5011341;28;20543;-70
2023/05/14 06:01:08;;;;;;;1999.90;999.90;;;12.40;99.90;;;;;;5011760;28;20314;-70
2023/05/14 06:03:34;;;;;;;1999.90;999.90;;;12.40;99.90;;;;;;5012109;28;20179;-70
2023/05/14 06:06:00;;;;;;;1999.90;999.90;;;12.60;99.90;;;;;;5011988;28;20168;-70
2023/05/14 06:08:25;;;;;;;1999.90;999.90;;;12.60;99.90;;;;;;5012129;28;20688;-70
2023/05/14 06:10:51;;;;;;;1999.90;999.90;;;12.70;99.90;;;;;;5011833;28;20189;-69
2023/05/14 06:13:17;;;;;;;1999.90;999.90;;;12.70;99.90;;;;;;5011982;28;20187;-70
2023/05/14 06:15:42;;;;;;;1999.90;999.90;;;12.80;99.90;;;;;;5011965;28;21171;-70
2023/05/14 06:18:08;;;;;;;1999.90;999.90;;;13.20;99.90;;;;;;5011928;28;20276;-70
2023/05/14 06:20:33;;;;;;;1999.90;999.90;;;13.00;99.90;;;;;;5011766;28;20207;-70
2023/05/14 06:22:59;;;;;;;1999.90;999.90;;;13.00;99.90;;;;;;5011596;28;20247;-69
2023/05/14 06:25:24;;;;;;;1999.90;999.90;;;13.10;99.90;;;;;;5011997;28;20449;-70
2023/05/14 06:27:50;;;;;;;1999.90;999.90;;;13.10;99.90;;;;;;5011881;28;20177;-70
2023/05/14 06:30:16;;;;;;;1999.90;999.90;;;13.20;99.90;;;;;;5012179;28;20263;-70
2023/05/14 06:32:41;;;;;;;1999.90;999.90;;;13.30;99.90;;;;;;5011539;28;20176;-71
2023/05/14 06:35:07;;;;;;;1999.90;999.90;;;13.30;99.90;;;;;;5011728;28;20176;-71
2023/05/14 06:37:33;;;;;;;1999.90;999.90;;;13.40;99.90;;;;;;5011721;28;20680;-71
2023/05/14 06:39:59;;;;;;;1999.90;999.90;;;13.50;99.90;;;;;;5011566;28;20469;-71
2023/05/14 06:42:25;;;;;;;1999.90;999.90;;;13.60;99.90;;;;;;5011549;28;20203;-70
2023/05/14 06:44:51;;;;;;;1999.90;999.90;;;13.50;99.90;;;;;;5011844;28;20414;-71
2023/05/14 06:47:16;;;;;;;1999.90;999.90;;;13.50;99.90;;;;;;5011668;28;20889;-71
2023/05/14 06:49:42;;;;;;;1999.90;999.90;;;13.50;99.90;;;;;;5011509;28;20577;-70
2023/05/14 06:52:07;;;;;;;1999.90;999.90;;;13.50;99.90;;;;;;5011578;28;20244;-71
2023/05/14 06:54:33;;;;;;;1999.90;999.90;;;13.60;99.90;;;;;;5011556;28;20645;-72
2023/05/14 06:56:58;;;;;;;1999.90;999.90;;;13.60;99.90;;;;;;5011562;28;20188;-71
2023/05/14 06:59:24;;;;;;;1999.90;999.90;;;13.60;99.90;;;;;;5011416;28;20253;-71
2023/05/14 07:01:49;;;;;;;1999.90;999.90;;;13.60;99.90;;;;;;5011303;28;20285;-73
2023/05/14 07:04:15;;;;;;;1999.90;999.90;;;13.60;99.90;;;;;;5011419;28;20195;-72
2023/05/14 07:06:40;;;;;;;1999.90;999.90;;;13.60;99.90;;;;;;5011394;28;20813;-72
2023/05/14 07:09:06;;;;;;;1999.90;999.90;;;13.60;99.90;;;;;;5011610;28;20668;-70
2023/05/14 07:11:32;;;;;;;1999.90;999.90;;;13.70;99.90;;;;;;5014711;28;20180;-72
2023/05/14 07:13:58;;;;;;;1999.90;999.90;;;13.80;99.90;;;;;;5015151;28;20556;-73
2023/05/14 07:16:24;;;;;;;1999.90;999.90;;;13.80;99.90;;;;;;5014868;28;20415;-72
2023/05/14 07:18:49;;;;;;;1999.90;999.90;;;13.90;99.90;;;;;;5014756;28;20439;-72
2023/05/14 07:21:15;;;;;;;1999.90;999.90;;;14.00;99.90;;;;;;5014344;28;20264;-72
2023/05/14 07:23:41;;;;;;;1999.90;999.90;;;14.20;99.90;;;;;;5014928;28;20172;-72
2023/05/14 07:26:07;;;;;;;1999.90;999.90;;;14.20;99.90;;;;;;5014810;28;20255;-72
2023/05/14 07:28:33;;;;;;;1999.90;999.90;;;14.30;99.90;;;;;;5014517;28;20236;-72
2023/05/14 07:30:59;;;;;;;1999.90;999.90;;;14.40;99.90;;;;;;5014211;28;20783;-72
2023/05/14 07:33:25;;;;;;;1999.90;999.90;;;14.50;99.90;;;;;;5014534;28;20415;-72
2023/05/14 07:35:52;;;;;;;1999.90;999.90;;;14.60;99.90;;;;;;5014413;28;20423;-73
2023/05/14 07:38:18;;;;;;;1999.90;999.90;;;14.60;99.90;;;;;;5014233;28;20407;-70
2023/05/14 07:40:43;;;;;;;1999.90;999.90;;;14.70;99.90;;;;;;5014158;28;20833;-72
2023/05/14 07:43:09;;;;;;;1999.90;999.90;;;14.80;99.90;;;;;;5014016;28;20270;-73
2023/05/14 07:45:36;;;;;;;1999.90;999.90;;;14.80;99.90;;;;;;5014393;28;20180;-73
2023/05/14 07:48:02;;;;;;;1999.90;999.90;;;14.90;99.90;;;;;;5014039;28;20411;-73
2023/05/14 07:50:27;;;;;;;1999.90;999.90;;;14.90;99.90;;;;;;5014154;28;20432;-72
2023/05/14 07:52:53;;;;;;;1999.90;999.90;;;14.90;99.90;;;;;;5013886;28;20226;-73
2023/05/14 07:55:19;;;;;;;1999.90;999.90;;;15.10;99.90;;;;;;5014134;28;20179;-73
2023/05/14 07:57:44;;;;;;;1999.90;999.90;;;15.20;99.90;;;;;;5014195;28;20664;-73
2023/05/14 08:00:11;;;;;;;1999.90;999.90;;;15.30;99.90;;;;;;5013972;28;20205;-73
2023/05/14 08:02:36;;;;;;;1999.90;999.90;;;15.40;99.90;;;;;;5012960;28;20170;-73
2023/05/14 08:05:03;;;;;;;1999.90;999.90;;;15.50;99.90;;;;;;5013926;28;20748;-73
2023/05/14 08:07:29;;;;;;;1999.90;999.90;;;15.50;99.90;;;;;;5014051;28;20179;-73
2023/05/14 08:09:54;;;;;;;1999.90;999.90;;;15.50;99.90;;;;;;5013859;28;20430;-72
2023/05/14 08:12:20;;;;;;;1999.90;999.90;;;15.60;99.90;;;;;;5013636;28;20648;-73
2023/05/14 08:14:46;;;;;;;1999.90;999.90;;;15.70;99.90;;;;;;5013843;28;20173;-73
2023/05/14 08:17:12;;;;;;;1999.90;999.90;;;15.80;99.90;;;;;;5013764;28;20196;-73
2023/05/14 08:19:37;;;;;;;1999.90;999.90;;;15.80;99.90;;;;;;5013848;28;20283;-73
2023/05/14 08:22:03;;;;;;;1999.90;999.90;;;15.80;99.90;;;;;;5012565;28;20575;-73
2023/05/14 08:24:29;;;;;;;1999.90;999.90;;;16.00;99.90;;;;;;5013702;28;20177;-70
2023/05/14 08:26:55;;;;;;;1999.90;999.90;;;16.10;99.90;;;;;;5013556;28;20407;-70
2023/05/14 08:29:20;;;;;;;1999.90;999.90;;;16.20;99.90;;;;;;5013490;28;20198;-71
2023/05/14 08:31:47;;;;;;;1999.90;999.90;;;16.40;99.90;;;;;;5013148;28;20184;-71
2023/05/14 08:34:12;;;;;;;1999.90;999.90;;;16.60;99.90;;;;;;5013440;28;20180;-71
2023/05/14 08:36:38;;;;;;;1999.90;999.90;;;16.60;99.90;;;;;;5013310;28;20407;-71
2023/05/14 08:39:03;;;;;;;1999.90;999.90;;;16.60;99.90;;;;;;5013839;28;20724;-71
2023/05/14 08:41:30;;;;;;;1999.90;999.90;;;16.70;99.90;;;;;;5012963;28;20197;-70
2023/05/14 08:43:58;;;;;;;1999.90;999.90;;;16.80;99.90;;;;;;5013214;28;20168;-71
2023/05/14 08:46:28;;;;;;;1999.90;999.90;;;16.90;99.90;;;;;;5013105;28;20433;-71
2023/05/14 08:48:59;;;;;;;1999.90;999.90;;;17.10;99.90;;;;;;5012986;28;20432;-71
2023/05/14 08:51:26;;;;;;;1999.90;999.90;;;17.30;99.90;;;;;;5012859;28;20403;-71
2023/05/14 08:53:52;;;;;;;1999.90;999.90;;;17.40;99.90;;;;;;5013037;28;20946;-71
2023/05/14 08:56:18;;;;;;;1999.90;999.90;;;17.50;99.90;;;;;;5013038;28;20550;-71
2023/05/14 08:58:44;;;;;;;1999.90;999.90;;;17.60;99.90;;;;;;5012835;28;20196;-70
2023/05/14 09:01:10;;;;;;;1999.90;999.90;;;17.70;99.90;;;;;;5012534;28;20463;-70
2023/05/14 09:03:36;;;;;;;1999.90;999.90;;;17.80;99.90;;;;;;5012993;28;20898;-71
2023/05/14 09:06:03;;;;;;;1999.90;999.90;;;17.90;99.90;;;;;;5012661;28;20171;-71
2023/05/14 09:08:28;;;;;;;1999.90;999.90;;;18.00;99.90;;;;;;5013022;28;20427;-70
2023/05/14 09:10:54;;;;;;;1999.90;999.90;;;18.00;99.90;;;;;;5012525;28;20489;-70
2023/05/14 09:13:20;;;;;;;1999.90;999.90;;;18.10;99.90;;;;;;5012616;28;20183;-71
2023/05/14 09:15:46;;;;;;;1999.90;999.90;;;18.30;99.90;;;;;;5012682;28;20223;-71
2023/05/14 09:18:12;;;;;;;1999.90;999.90;;;18.40;99.90;;;;;;5012543;28;20187;-71
2023/05/14 09:20:38;;;;;;;1999.90;999.90;;;18.60;99.90;;;;;;5012349;28;20970;-71
2023/05/14 09:23:03;;;;;;;1999.90;999.90;;;18.70;99.90;;;;;;5012300;28;20179;-71
2023/05/14 09:25:32;;;;;;;1999.90;999.90;;;18.80;99.90;;;;;;5012954;28;20218;-71
2023/05/14 09:27:58;;;;;;;1999.90;999.90;;;18.90;99.90;;;;;;5012426;28;20175;-71
2023/05/14 09:30:25;;;;;;;1999.90;999.90;;;19.00;99.90;;;;;;5012284;28;20453;-71
2023/05/14 09:32:53;;;;;;;1999.90;999.90;;;19.10;99.90;;;;;;5011339;28;20717;-71
2023/05/14 09:35:23;;;;;;;1999.90;999.90;;;19.20;99.90;;;;;;5012128;28;20438;-71
2023/05/14 09:37:50;;;;;;;1999.90;999.90;;;19.30;99.90;;;;;;5012265;28;20465;-71
2023/05/14 09:40:18;;;;;;;1999.90;999.90;;;19.40;99.90;;;;;;5011762;28;20452;-70
2023/05/14 09:42:44;;;;;;;1999.90;999.90;;;19.50;99.90;;;;;;5011816;28;20440;-71
2023/05/14 09:45:10;;;;;;;1999.90;999.90;;;19.60;99.90;;;;;;5012440;28;20438;-70
2023/05/14 09:47:37;;;;;;;1999.90;999.90;;;19.70;99.90;;;;;;5012221;28;20410;-70
2023/05/14 09:50:04;;;;;;;1999.90;999.90;;;19.70;99.90;;;;;;5012068;28;20969;-70
2023/05/14 09:52:29;;;;;;;1999.90;999.90;;;19.80;99.90;;;;;;5011857;28;20419;-70
2023/05/14 09:54:55;;;;;;;1999.90;999.90;;;19.90;99.90;;;;;;5012061;28;20404;-70
2023/05/14 09:57:21;;;;;;;1999.90;999.90;;;20.00;99.90;;;;;;5011785;28;20288;-70
2023/05/14 09:59:47;;;;;;;1999.90;999.90;;;20.00;99.90;;;;;;5012248;28;20437;-70
2023/05/14 10:02:36;;;;;;;1999.90;999.90;;;20.10;99.90;;;;;;5011739;28;20653;-70
2023/05/14 10:05:03;;;;;;;1999.90;999.90;;;19.80;99.90;;;;;;5011752;28;20165;-71
2023/05/14 10:07:37;;;;;;;1999.90;999.90;;;19.40;99.90;;;;;;5011762;28;20951;-70
2023/05/14 10:10:06;;;;;;;1999.90;999.90;;;19.40;99.90;;;;;;5012010;28;20431;-70
2023/05/14 10:12:37;;;;;;;1999.90;999.90;;;19.20;99.90;;;;;;5011894;28;20397;-70
2023/05/14 10:15:11;;;;;;;1999.90;999.90;;;18.90;99.90;;;;;;5011978;28;20420;-70
2023/05/14 10:17:39;;;;;;;1999.90;999.90;;;19.00;99.90;;;;;;5011578;28;20470;-70
2023/05/14 10:20:08;;;;;;;1999.90;999.90;;;19.30;99.90;;;;;;5011781;28;20423;-70
2023/05/14 10:22:34;;;;;;;1999.90;999.90;;;19.40;99.90;;;;;;5011432;28;20483;-70
2023/05/14 10:25:01;;;;;;;1999.90;999.90;;;19.50;99.90;;;;;;5012058;28;20414;-70
2023/05/14 10:27:28;;;;;;;1999.90;999.90;;;19.70;99.90;;;;;;5012028;28;20404;-70
2023/05/14 10:29:54;;;;;;;1999.90;999.90;;;19.70;99.90;;;;;;5011667;28;20535;-70
2023/05/14 10:32:23;;;;;;;1999.90;999.90;;;19.50;99.90;;;;;;5011469;28;20818;-70
2023/05/14 10:34:50;;;;;;;1999.90;999.90;;;19.50;99.90;;;;;;5011690;28;20464;-70
2023/05/14 10:37:22;;;;;;;1999.90;999.90;;;19.40;99.90;;;;;;5011759;28;20471;-70
2023/05/14 10:39:57;;;;;;;1999.90;999.90;;;19.40;99.90;;;;;;5011695;28;20893;-70
2023/05/14 10:42:26;;;;;;;1999.90;999.90;;;19.80;99.90;;;;;;5011428;28;20429;-72
2023/05/14 10:44:57;;;;;;;1999.90;999.90;;;19.90;99.90;;;;;;5013039;28;20408;-70
2023/05/14 10:47:27;;;;;;;1999.90;999.90;;;20.10;99.90;;;;;;5015226;28;20386;-70
2023/05/14 10:49:57;;;;;;;1999.90;999.90;;;20.10;99.90;;;;;;5015272;28;20433;-70
2023/05/14 10:52:23;;;;;;;1999.90;999.90;;;20.00;99.90;;;;;;5015106;28;20451;-72
2023/05/14 10:54:53;;;;;;;1999.90;999.90;;;20.00;99.90;;;;;;5015230;28;20411;-70
2023/05/14 10:57:21;;;;;;;1999.90;999.90;;;20.00;99.90;;;;;;5015212;28;20405;-70
2023/05/14 10:59:53;;;;;;;1999.90;999.90;;;20.30;99.90;;;;;;5015055;28;20425;-70
2023/05/14 11:02:29;;;;;;;1999.90;999.90;;;20.50;99.90;;;;;;5014769;28;20527;-72
2023/05/14 11:05:02;;;;;;;1999.90;999.90;;;20.60;99.90;;;;;;5016704;28;20451;-72
2023/05/14 11:07:37;;;;;;;1999.90;999.90;;;20.40;99.90;;;;;;5015069;28;20416;-71
2023/05/14 11:10:11;;;;;;;1999.90;999.90;;;20.50;99.90;;;;;;5014781;28;20446;-71
2023/05/14 11:12:39;;;;;;;1999.90;999.90;;;20.50;99.90;;;;;;5014747;28;20479;-71
2023/05/14 11:15:10;;;;;;;1999.90;999.90;;;20.50;99.90;;;;;;5015086;28;20400;-71
2023/05/14 11:17:37;;;;;;;1999.90;999.90;;;20.70;99.90;;;;;;5014829;28;20416;-71
2023/05/14 11:20:06;;;;;;;1999.90;999.90;;;20.90;99.90;;;;;;5014754;28;20397;-71
2023/05/14 11:22:33;;;;;;;1999.90;999.90;;;20.60;99.90;;;;;;5014309;28;20427;-71
2023/05/14 11:24:58;;;;;;;1999.90;999.90;;;20.50;99.90;;;;;;5014763;28;20506;-71
2023/05/14 11:27:25;;;;;;;1999.90;999.90;;;20.80;99.90;;;;;;5014722;28;20537;-71
2023/05/14 11:29:51;;;;;;;1999.90;999.90;;;21.20;99.90;;;;;;5014414;28;20199;-71
2023/05/14 11:32:17;;;;;;;1999.90;999.90;;;21.60;99.90;;;;;;5014474;28;20424;-70
2023/05/14 11:34:45;;;;;;;1999.90;999.90;;;21.50;99.90;;;;;;5014592;28;20496;-71
2023/05/14 11:37:13;;;;;;;1999.90;999.90;;;21.40;99.90;;;;;;5014490;28;20418;-71
2023/05/14 11:39:45;;;;;;;1999.90;999.90;;;21.80;99.90;;;;;;5014233;28;20458;-71
2023/05/14 11:42:12;;;;;;;1999.90;999.90;;;22.20;99.90;;;;;;5014131;28;20437;-71
2023/05/14 11:44:38;;;;;;;1999.90;999.90;;;22.40;99.90;;;;;;5014441;28;20441;-71
2023/05/14 11:47:05;;;;;;;1999.90;999.90;;;22.10;99.90;;;;;;5014271;28;20386;-71
2023/05/14 11:49:31;;;;;;;1999.90;999.90;;;22.00;99.90;;;;;;5014188;28;20200;-72
2023/05/14 11:51:57;;;;;;;1999.90;999.90;;;22.20;99.90;;;;;;5013888;28;20423;-72
2023/05/14 11:54:28;;;;;;;1999.90;999.90;;;22.40;99.90;;;;;;5014178;28;20397;-72
2023/05/14 11:56:55;;;;;;;1999.90;999.90;;;22.50;99.90;;;;;;5013164;28;20437;-72